sensor_id;sensor_type;location;lat;lon;timestamp;P1;durP1;ratioP1;P2;durP2;ratioP2
75156;SDS011;63736;50.076;8.198;2023-02-23T00:00:25;1282.43;;;684.60;;
75156;SDS011;63736;50.076;8.198;2023-02-23T00:02:53;1284.32;;;692.85;;
75156;SDS011;63736;50.076;8.198;2023-02-23T00:05:20;1273.18;;;687.30;;
75156;SDS011;63736;50.076;8.198;2023-02-23T00:07:46;1276.57;;;691.20;;
75156;SDS011;63736;50.076;8.198;2023-02-23T00:10:12;1284.15;;;692.88;;
75156;SDS011;63736;50.076;8.198;2023-02-23T00:12:39;1284.57;;;685.63;;
75156;SDS011;63736;50.076;8.198;2023-02-23T00:15:07;1276.75;;;686.92;;
75156;SDS011;63736;50.076;8.198;2023-02-23T00:17:33;1281.53;;;684.65;;
75156;SDS011;63736;50.076;8.198;2023-02-23T00:20:01;1280.47;;;691.65;;
75156;SDS011;63736;50.076;8.198;2023-02-23T00:22:31;1283.88;;;690.30;;
75156;SDS011;63736;50.076;8.198;2023-02-23T00:24:57;1265.83;;;684.80;;
75156;SDS011;63736;50.076;8.198;2023-02-23T00:27:23;1277.80;;;683.15;;
75156;SDS011;63736;50.076;8.198;2023-02-23T00:29:49;1275.00;;;684.77;;
75156;SDS011;63736;50.076;8.198;2023-02-23T00:32:15;1276.05;;;687.08;;
75156;SDS011;63736;50.076;8.198;2023-02-23T00:34:44;1265.90;;;685.90;;
75156;SDS011;63736;50.076;8.198;2023-02-23T00:37:09;1274.40;;;689.85;;
75156;SDS011;63736;50.076;8.198;2023-02-23T00:39:36;1282.85;;;690.45;;
75156;SDS011;63736;50.076;8.198;2023-02-23T00:42:02;1278.35;;;694.20;;
75156;SDS011;63736;50.076;8.198;2023-02-23T00:44:27;1277.60;;;692.43;;
75156;SDS011;63736;50.076;8.198;2023-02-23T00:46:53;1276.60;;;695.33;;
75156;SDS011;63736;50.076;8.198;2023-02-23T00:49:20;1277.20;;;694.37;;
75156;SDS011;63736;50.076;8.198;2023-02-23T00:51:47;1275.53;;;694.05;;
75156;SDS011;63736;50.076;8.198;2023-02-23T00:54:13;1286.60;;;697.03;;
75156;SDS011;63736;50.076;8.198;2023-02-23T00:56:40;1282.97;;;696.22;;
75156;SDS011;63736;50.076;8.198;2023-02-23T00:59:05;1275.13;;;699.67;;
75156;SDS011;63736;50.076;8.198;2023-02-23T01:03:56;1249.23;;;691.43;;
75156;SDS011;63736;50.076;8.198;2023-02-23T01:06:22;1257.27;;;696.80;;
75156;SDS011;63736;50.076;8.198;2023-02-23T01:08:48;1254.07;;;694.90;;
75156;SDS011;63736;50.076;8.198;2023-02-23T01:11:17;1271.03;;;699.05;;
75156;SDS011;63736;50.076;8.198;2023-02-23T01:13:47;1265.60;;;700.20;;
75156;SDS011;63736;50.076;8.198;2023-02-23T01:16:16;1265.15;;;701.50;;
75156;SDS011;63736;50.076;8.198;2023-02-23T01:18:43;1277.70;;;706.23;;
75156;SDS011;63736;50.076;8.198;2023-02-23T01:21:13;1263.80;;;701.95;;
75156;SDS011;63736;50.076;8.198;2023-02-23T01:23:44;1267.82;;;703.60;;
75156;SDS011;63736;50.076;8.198;2023-02-23T01:28:49;1260.23;;;704.33;;
75156;SDS011;63736;50.076;8.198;2023-02-23T01:31:14;1270.72;;;703.20;;
75156;SDS011;63736;50.076;8.198;2023-02-23T01:33:40;1276.27;;;708.10;;
75156;SDS011;63736;50.076;8.198;2023-02-23T01:36:05;1280.53;;;706.38;;
75156;SDS011;63736;50.076;8.198;2023-02-23T01:38:31;1276.50;;;708.25;;
75156;SDS011;63736;50.076;8.198;2023-02-23T01:40:56;1278.30;;;707.60;;
75156;SDS011;63736;50.076;8.198;2023-02-23T01:43:22;1280.47;;;710.17;;
75156;SDS011;63736;50.076;8.198;2023-02-23T01:45:50;1285.13;;;714.75;;
75156;SDS011;63736;50.076;8.198;2023-02-23T01:48:27;1272.47;;;709.00;;
75156;SDS011;63736;50.076;8.198;2023-02-23T01:51:11;1272.72;;;707.00;;
75156;SDS011;63736;50.076;8.198;2023-02-23T01:53:39;1284.65;;;713.78;;
75156;SDS011;63736;50.076;8.198;2023-02-23T01:56:09;1265.00;;;706.58;;
75156;SDS011;63736;50.076;8.198;2023-02-23T01:58:41;1268.00;;;704.28;;
75156;SDS011;63736;50.076;8.198;2023-02-23T02:03:37;1250.30;;;704.57;;
75156;SDS011;63736;50.076;8.198;2023-02-23T02:06:06;1252.25;;;703.00;;
75156;SDS011;63736;50.076;8.198;2023-02-23T02:08:35;1255.25;;;702.35;;
75156;SDS011;63736;50.076;8.198;2023-02-23T02:11:10;1259.85;;;707.72;;
75156;SDS011;63736;50.076;8.198;2023-02-23T02:14:04;1264.00;;;710.30;;
75156;SDS011;63736;50.076;8.198;2023-02-23T02:19:57;1262.57;;;711.85;;
75156;SDS011;63736;50.076;8.198;2023-02-23T02:22:43;1262.65;;;712.40;;
75156;SDS011;63736;50.076;8.198;2023-02-23T02:33:47;1352.07;;;784.67;;
75156;SDS011;63736;50.076;8.198;2023-02-23T02:39:28;1320.47;;;775.88;;
75156;SDS011;63736;50.076;8.198;2023-02-23T02:44:46;1307.03;;;765.83;;
75156;SDS011;63736;50.076;8.198;2023-02-23T02:47:18;1301.53;;;760.50;;
75156;SDS011;63736;50.076;8.198;2023-02-23T02:52:36;1304.50;;;761.80;;
75156;SDS011;63736;50.076;8.198;2023-02-23T02:55:08;1296.60;;;757.65;;
75156;SDS011;63736;50.076;8.198;2023-02-23T02:57:40;1312.30;;;761.17;;
75156;SDS011;63736;50.076;8.198;2023-02-23T03:00:07;1309.78;;;762.40;;
75156;SDS011;63736;50.076;8.198;2023-02-23T03:02:55;1304.55;;;757.53;;
75156;SDS011;63736;50.076;8.198;2023-02-23T03:08:31;1299.07;;;756.58;;
75156;SDS011;63736;50.076;8.198;2023-02-23T03:11:21;1297.03;;;753.90;;
75156;SDS011;63736;50.076;8.198;2023-02-23T03:23:23;1272.53;;;747.20;;
75156;SDS011;63736;50.076;8.198;2023-02-23T03:26:15;1279.90;;;750.90;;
75156;SDS011;63736;50.076;8.198;2023-02-23T03:32:05;1260.38;;;745.90;;
75156;SDS011;63736;50.076;8.198;2023-02-23T03:37:53;1258.87;;;745.87;;
75156;SDS011;63736;50.076;8.198;2023-02-23T03:40:44;1275.32;;;751.13;;
75156;SDS011;63736;50.076;8.198;2023-02-23T03:43:34;1293.72;;;756.85;;
75156;SDS011;63736;50.076;8.198;2023-02-23T03:46:24;1294.20;;;756.97;;
75156;SDS011;63736;50.076;8.198;2023-02-23T03:49:13;1291.20;;;757.00;;
75156;SDS011;63736;50.076;8.198;2023-02-23T03:52:04;1290.80;;;754.10;;
75156;SDS011;63736;50.076;8.198;2023-02-23T03:54:55;1292.05;;;752.60;;
75156;SDS011;63736;50.076;8.198;2023-02-23T03:57:42;1292.97;;;751.72;;
75156;SDS011;63736;50.076;8.198;2023-02-23T04:00:31;1298.20;;;757.03;;
75156;SDS011;63736;50.076;8.198;2023-02-23T04:06:05;1267.60;;;745.35;;
75156;SDS011;63736;50.076;8.198;2023-02-23T04:08:52;1287.43;;;750.60;;
75156;SDS011;63736;50.076;8.198;2023-02-23T04:11:49;1294.47;;;751.77;;
75156;SDS011;63736;50.076;8.198;2023-02-23T04:14:40;1296.13;;;753.75;;
75156;SDS011;63736;50.076;8.198;2023-02-23T04:19:47;1284.15;;;749.28;;
75156;SDS011;63736;50.076;8.198;2023-02-23T04:22:13;1290.75;;;754.00;;
75156;SDS011;63736;50.076;8.198;2023-02-23T04:24:39;1293.30;;;751.83;;
75156;SDS011;63736;50.076;8.198;2023-02-23T04:27:04;1301.13;;;755.47;;
75156;SDS011;63736;50.076;8.198;2023-02-23T04:29:30;1310.35;;;762.00;;
75156;SDS011;63736;50.076;8.198;2023-02-23T04:31:55;1312.60;;;758.23;;
75156;SDS011;63736;50.076;8.198;2023-02-23T04:34:20;1312.10;;;760.63;;
75156;SDS011;63736;50.076;8.198;2023-02-23T04:36:45;1309.23;;;755.63;;
75156;SDS011;63736;50.076;8.198;2023-02-23T04:39:11;1312.80;;;760.10;;
75156;SDS011;63736;50.076;8.198;2023-02-23T04:41:36;1317.10;;;762.77;;
75156;SDS011;63736;50.076;8.198;2023-02-23T04:46:27;1287.63;;;747.57;;
75156;SDS011;63736;50.076;8.198;2023-02-23T04:48:52;1298.67;;;752.50;;
75156;SDS011;63736;50.076;8.198;2023-02-23T04:51:17;1299.93;;;752.10;;
75156;SDS011;63736;50.076;8.198;2023-02-23T04:53:42;1522.90;;;752.17;;
75156;SDS011;63736;50.076;8.198;2023-02-23T04:56:08;1434.80;;;804.43;;
75156;SDS011;63736;50.076;8.198;2023-02-23T05:01:05;1352.37;;;783.13;;
75156;SDS011;63736;50.076;8.198;2023-02-23T05:03:31;1349.28;;;781.45;;
75156;SDS011;63736;50.076;8.198;2023-02-23T05:05:56;1344.10;;;781.83;;
75156;SDS011;63736;50.076;8.198;2023-02-23T05:08:22;1352.30;;;785.27;;
75156;SDS011;63736;50.076;8.198;2023-02-23T05:10:47;1341.57;;;781.97;;
75156;SDS011;63736;50.076;8.198;2023-02-23T05:13:12;1350.33;;;780.07;;
75156;SDS011;63736;50.076;8.198;2023-02-23T05:15:37;1340.87;;;779.50;;
75156;SDS011;63736;50.076;8.198;2023-02-23T05:18:03;1343.90;;;779.50;;
75156;SDS011;63736;50.076;8.198;2023-02-23T05:20:28;1333.43;;;776.63;;
75156;SDS011;63736;50.076;8.198;2023-02-23T05:22:54;1329.67;;;771.73;;
75156;SDS011;63736;50.076;8.198;2023-02-23T05:25:19;1328.93;;;772.83;;
75156;SDS011;63736;50.076;8.198;2023-02-23T05:27:44;1340.50;;;772.43;;
75156;SDS011;63736;50.076;8.198;2023-02-23T05:30:10;1329.60;;;768.53;;
75156;SDS011;63736;50.076;8.198;2023-02-23T05:32:35;1339.65;;;773.10;;
75156;SDS011;63736;50.076;8.198;2023-02-23T05:35:01;1345.63;;;776.20;;
75156;SDS011;63736;50.076;8.198;2023-02-23T05:39:52;1307.73;;;764.17;;
75156;SDS011;63736;50.076;8.198;2023-02-23T05:42:17;1324.47;;;769.07;;
75156;SDS011;63736;50.076;8.198;2023-02-23T05:47:07;1312.70;;;761.97;;
75156;SDS011;63736;50.076;8.198;2023-02-23T05:49:33;1315.77;;;763.87;;
75156;SDS011;63736;50.076;8.198;2023-02-23T05:54:23;1303.80;;;755.70;;
75156;SDS011;63736;50.076;8.198;2023-02-23T05:56:48;1319.43;;;763.83;;
75156;SDS011;63736;50.076;8.198;2023-02-23T05:59:14;1324.15;;;766.30;;
75156;SDS011;63736;50.076;8.198;2023-02-23T06:01:41;1334.03;;;771.78;;
75156;SDS011;63736;50.076;8.198;2023-02-23T06:04:06;1337.23;;;770.83;;
75156;SDS011;63736;50.076;8.198;2023-02-23T06:06:32;1335.83;;;767.80;;
75156;SDS011;63736;50.076;8.198;2023-02-23T06:08:57;1342.03;;;769.87;;
75156;SDS011;63736;50.076;8.198;2023-02-23T06:11:22;1341.87;;;770.43;;
75156;SDS011;63736;50.076;8.198;2023-02-23T06:13:48;1343.70;;;771.40;;
75156;SDS011;63736;50.076;8.198;2023-02-23T06:16:13;1343.27;;;767.53;;
75156;SDS011;63736;50.076;8.198;2023-02-23T06:18:39;1343.87;;;769.80;;
75156;SDS011;63736;50.076;8.198;2023-02-23T06:21:04;1339.63;;;765.83;;
75156;SDS011;63736;50.076;8.198;2023-02-23T06:23:30;1346.00;;;769.92;;
75156;SDS011;63736;50.076;8.198;2023-02-23T06:28:23;1311.78;;;764.25;;
75156;SDS011;63736;50.076;8.198;2023-02-23T06:30:53;1334.82;;;771.45;;
75156;SDS011;63736;50.076;8.198;2023-02-23T06:33:19;1332.23;;;768.90;;
75156;SDS011;63736;50.076;8.198;2023-02-23T06:38:10;1318.20;;;768.27;;
75156;SDS011;63736;50.076;8.198;2023-02-23T06:40:36;1332.20;;;771.77;;
75156;SDS011;63736;50.076;8.198;2023-02-23T06:43:02;1347.97;;;775.08;;
75156;SDS011;63736;50.076;8.198;2023-02-23T06:45:29;1346.47;;;772.78;;
75156;SDS011;63736;50.076;8.198;2023-02-23T06:47:55;1341.18;;;771.53;;
75156;SDS011;63736;50.076;8.198;2023-02-23T06:50:21;1343.43;;;771.83;;
75156;SDS011;63736;50.076;8.198;2023-02-23T06:52:46;1353.03;;;777.33;;
75156;SDS011;63736;50.076;8.198;2023-02-23T06:55:12;1353.72;;;775.85;;
75156;SDS011;63736;50.076;8.198;2023-02-23T06:57:38;1351.83;;;777.70;;
75156;SDS011;63736;50.076;8.198;2023-02-23T07:00:03;1344.78;;;774.67;;
75156;SDS011;63736;50.076;8.198;2023-02-23T07:02:29;1351.57;;;777.70;;
75156;SDS011;63736;50.076;8.198;2023-02-23T07:04:55;1354.15;;;775.97;;
75156;SDS011;63736;50.076;8.198;2023-02-23T07:07:21;1354.87;;;777.70;;
75156;SDS011;63736;50.076;8.198;2023-02-23T07:09:46;1359.57;;;781.47;;
75156;SDS011;63736;50.076;8.198;2023-02-23T07:12:11;1354.73;;;777.07;;
75156;SDS011;63736;50.076;8.198;2023-02-23T07:14:37;1359.60;;;778.40;;
75156;SDS011;63736;50.076;8.198;2023-02-23T07:17:03;1354.93;;;775.33;;
75156;SDS011;63736;50.076;8.198;2023-02-23T07:19:29;1353.73;;;776.03;;
75156;SDS011;63736;50.076;8.198;2023-02-23T07:21:55;1362.47;;;777.60;;
75156;SDS011;63736;50.076;8.198;2023-02-23T07:24:20;1363.50;;;778.20;;
75156;SDS011;63736;50.076;8.198;2023-02-23T07:26:46;1358.18;;;773.25;;
75156;SDS011;63736;50.076;8.198;2023-02-23T07:31:38;1332.30;;;770.27;;
75156;SDS011;63736;50.076;8.198;2023-02-23T07:36:29;1330.53;;;764.90;;
75156;SDS011;63736;50.076;8.198;2023-02-23T07:38:55;1350.47;;;775.30;;
75156;SDS011;63736;50.076;8.198;2023-02-23T07:41:21;1363.22;;;779.78;;
75156;SDS011;63736;50.076;8.198;2023-02-23T07:43:46;1366.47;;;779.87;;
75156;SDS011;63736;50.076;8.198;2023-02-23T07:46:12;1369.93;;;780.70;;
75156;SDS011;63736;50.076;8.198;2023-02-23T07:48:39;1386.55;;;782.03;;
75156;SDS011;63736;50.076;8.198;2023-02-23T07:51:07;1380.10;;;781.40;;
75156;SDS011;63736;50.076;8.198;2023-02-23T07:53:34;1377.35;;;778.05;;
75156;SDS011;63736;50.076;8.198;2023-02-23T07:55:59;1373.83;;;772.73;;
75156;SDS011;63736;50.076;8.198;2023-02-23T08:00:50;1363.80;;;769.80;;
75156;SDS011;63736;50.076;8.198;2023-02-23T08:03:16;1371.27;;;773.97;;
75156;SDS011;63736;50.076;8.198;2023-02-23T08:05:41;1375.57;;;776.90;;
75156;SDS011;63736;50.076;8.198;2023-02-23T08:08:08;1384.65;;;776.72;;
75156;SDS011;63736;50.076;8.198;2023-02-23T08:10:35;1390.63;;;778.75;;
75156;SDS011;63736;50.076;8.198;2023-02-23T08:13:00;1393.37;;;779.67;;
75156;SDS011;63736;50.076;8.198;2023-02-23T08:15:25;1395.27;;;777.50;;
75156;SDS011;63736;50.076;8.198;2023-02-23T08:17:50;1392.60;;;777.67;;
75156;SDS011;63736;50.076;8.198;2023-02-23T08:20:16;1391.80;;;777.73;;
75156;SDS011;63736;50.076;8.198;2023-02-23T08:22:42;1391.23;;;775.07;;
75156;SDS011;63736;50.076;8.198;2023-02-23T08:25:07;1405.67;;;781.97;;
75156;SDS011;63736;50.076;8.198;2023-02-23T08:27:33;1397.32;;;781.22;;
75156;SDS011;63736;50.076;8.198;2023-02-23T08:30:00;1403.15;;;783.00;;
75156;SDS011;63736;50.076;8.198;2023-02-23T08:32:28;1400.30;;;779.57;;
75156;SDS011;63736;50.076;8.198;2023-02-23T08:34:54;1406.45;;;784.13;;
75156;SDS011;63736;50.076;8.198;2023-02-23T08:37:21;1408.03;;;783.55;;
75156;SDS011;63736;50.076;8.198;2023-02-23T08:39:47;1415.20;;;786.53;;
75156;SDS011;63736;50.076;8.198;2023-02-23T08:42:12;1414.63;;;785.23;;
75156;SDS011;63736;50.076;8.198;2023-02-23T08:44:38;1426.95;;;792.55;;
75156;SDS011;63736;50.076;8.198;2023-02-23T08:47:03;1433.20;;;791.23;;
75156;SDS011;63736;50.076;8.198;2023-02-23T08:49:29;1435.60;;;804.27;;
75156;SDS011;63736;50.076;8.198;2023-02-23T08:51:56;1444.43;;;802.25;;
75156;SDS011;63736;50.076;8.198;2023-02-23T08:56:46;1431.27;;;803.57;;
75156;SDS011;63736;50.076;8.198;2023-02-23T08:59:12;1456.90;;;824.10;;
75156;SDS011;63736;50.076;8.198;2023-02-23T09:01:38;1468.97;;;814.45;;
75156;SDS011;63736;50.076;8.198;2023-02-23T09:04:04;1645.55;;;766.00;;
75156;SDS011;63736;50.076;8.198;2023-02-23T09:06:29;1746.07;;;784.03;;
75156;SDS011;63736;50.076;8.198;2023-02-23T09:08:56;1646.87;;;820.33;;
75156;SDS011;63736;50.076;8.198;2023-02-23T09:11:21;1772.10;;;796.50;;
75156;SDS011;63736;50.076;8.198;2023-02-23T09:13:47;1661.97;;;821.97;;
75156;SDS011;63736;50.076;8.198;2023-02-23T09:16:13;1809.27;;;807.07;;
75156;SDS011;63736;50.076;8.198;2023-02-23T09:18:38;1710.33;;;891.10;;
75156;SDS011;63736;50.076;8.198;2023-02-23T09:21:05;1682.88;;;886.10;;
75156;SDS011;63736;50.076;8.198;2023-02-23T09:23:32;1834.95;;;829.10;;
75156;SDS011;63736;50.076;8.198;2023-02-23T09:26:05;1718.15;;;873.33;;
75156;SDS011;63736;50.076;8.198;2023-02-23T09:28:31;1873.82;;;832.35;;
75156;SDS011;63736;50.076;8.198;2023-02-23T09:30:58;1734.47;;;885.67;;
75156;SDS011;63736;50.076;8.198;2023-02-23T09:35:54;1670.17;;;882.37;;
75156;SDS011;63736;50.076;8.198;2023-02-23T09:38:20;1876.73;;;851.47;;
75156;SDS011;63736;50.076;8.198;2023-02-23T09:40:46;1747.80;;;942.27;;
75156;SDS011;63736;50.076;8.198;2023-02-23T09:46:00;1934.63;;;862.75;;
75156;SDS011;63736;50.076;8.198;2023-02-23T09:48:30;1810.03;;;923.97;;
75156;SDS011;63736;50.076;8.198;2023-02-23T09:50:58;1999.90;;;937.43;;
75156;SDS011;63736;50.076;8.198;2023-02-23T09:53:27;1845.38;;;918.40;;
75156;SDS011;63736;50.076;8.198;2023-02-23T10:03:27;1740.68;;;881.17;;
75156;SDS011;63736;50.076;8.198;2023-02-23T10:09:13;1720.95;;;871.15;;
75156;SDS011;63736;50.076;8.198;2023-02-23T10:17:27;1774.17;;;887.37;;
75156;SDS011;63736;50.076;8.198;2023-02-23T10:22:36;1715.75;;;889.90;;
75156;SDS011;63736;50.076;8.198;2023-02-23T10:27:40;1670.72;;;861.75;;
75156;SDS011;63736;50.076;8.198;2023-02-23T10:32:55;1601.47;;;807.55;;
75156;SDS011;63736;50.076;8.198;2023-02-23T10:35:23;1590.97;;;799.17;;
75156;SDS011;63736;50.076;8.198;2023-02-23T10:37:49;1590.90;;;797.43;;
75156;SDS011;63736;50.076;8.198;2023-02-23T10:40:21;1601.25;;;806.58;;
75156;SDS011;63736;50.076;8.198;2023-02-23T10:42:48;1798.03;;;787.80;;
75156;SDS011;63736;50.076;8.198;2023-02-23T10:45:15;1654.18;;;787.67;;
75156;SDS011;63736;50.076;8.198;2023-02-23T10:47:48;1611.90;;;785.27;;
75156;SDS011;63736;50.076;8.198;2023-02-23T10:50:20;1586.75;;;780.08;;
75156;SDS011;63736;50.076;8.198;2023-02-23T10:52:47;1571.50;;;775.05;;
75156;SDS011;63736;50.076;8.198;2023-02-23T10:55:22;1550.88;;;760.35;;
75156;SDS011;63736;50.076;8.198;2023-02-23T11:00:30;1532.00;;;759.27;;
75156;SDS011;63736;50.076;8.198;2023-02-23T11:02:58;1531.53;;;760.65;;
75156;SDS011;63736;50.076;8.198;2023-02-23T11:08:18;1549.47;;;770.97;;
75156;SDS011;63736;50.076;8.198;2023-02-23T11:10:53;1538.88;;;766.65;;
75156;SDS011;63736;50.076;8.198;2023-02-23T11:13:37;1529.87;;;763.93;;
75156;SDS011;63736;50.076;8.198;2023-02-23T11:16:08;1534.65;;;766.67;;
75156;SDS011;63736;50.076;8.198;2023-02-23T11:18:37;1540.47;;;767.30;;
75156;SDS011;63736;50.076;8.198;2023-02-23T11:21:08;1534.57;;;763.97;;
75156;SDS011;63736;50.076;8.198;2023-02-23T11:23:35;1540.63;;;769.60;;
75156;SDS011;63736;50.076;8.198;2023-02-23T11:26:18;1536.90;;;767.10;;
75156;SDS011;63736;50.076;8.198;2023-02-23T11:29:01;1528.75;;;762.70;;
75156;SDS011;63736;50.076;8.198;2023-02-23T11:31:34;1542.75;;;770.80;;
75156;SDS011;63736;50.076;8.198;2023-02-23T11:39:01;1544.25;;;772.17;;
75156;SDS011;63736;50.076;8.198;2023-02-23T11:41:30;1543.55;;;769.10;;
75156;SDS011;63736;50.076;8.198;2023-02-23T11:43:59;1545.50;;;764.27;;
75156;SDS011;63736;50.076;8.198;2023-02-23T11:48:56;1516.15;;;755.45;;
75156;SDS011;63736;50.076;8.198;2023-02-23T11:51:30;1534.13;;;764.55;;
75156;SDS011;63736;50.076;8.198;2023-02-23T11:53:59;1548.13;;;770.08;;
75156;SDS011;63736;50.076;8.198;2023-02-23T11:56:25;1535.68;;;763.08;;
75156;SDS011;63736;50.076;8.198;2023-02-23T11:58:54;1542.03;;;766.73;;
75156;SDS011;63736;50.076;8.198;2023-02-23T12:01:42;1540.63;;;764.63;;
75156;SDS011;63736;50.076;8.198;2023-02-23T12:04:30;1539.75;;;766.65;;
75156;SDS011;63736;50.076;8.198;2023-02-23T12:24:01;1508.30;;;752.22;;
75156;SDS011;63736;50.076;8.198;2023-02-23T12:26:35;1515.37;;;754.30;;
75156;SDS011;63736;50.076;8.198;2023-02-23T12:29:22;1526.53;;;757.58;;
75156;SDS011;63736;50.076;8.198;2023-02-23T12:31:59;1536.15;;;757.05;;
75156;SDS011;63736;50.076;8.198;2023-02-23T12:34:45;1544.07;;;762.67;;
75156;SDS011;63736;50.076;8.198;2023-02-23T12:37:48;1536.85;;;754.63;;
75156;SDS011;63736;50.076;8.198;2023-02-23T12:45:43;1556.18;;;757.03;;
75156;SDS011;63736;50.076;8.198;2023-02-23T12:51:04;1570.85;;;754.38;;
75156;SDS011;63736;50.076;8.198;2023-02-23T12:53:40;1577.13;;;757.33;;
75156;SDS011;63736;50.076;8.198;2023-02-23T13:02:13;1587.15;;;755.75;;
75156;SDS011;63736;50.076;8.198;2023-02-23T13:08:03;1581.57;;;753.90;;
75156;SDS011;63736;50.076;8.198;2023-02-23T13:10:54;1593.60;;;762.15;;
75156;SDS011;63736;50.076;8.198;2023-02-23T13:13:32;1583.88;;;758.78;;
75156;SDS011;63736;50.076;8.198;2023-02-23T13:16:09;1573.22;;;759.67;;
75156;SDS011;63736;50.076;8.198;2023-02-23T13:18:47;1574.85;;;757.45;;
75156;SDS011;63736;50.076;8.198;2023-02-23T13:21:27;1570.80;;;758.43;;
75156;SDS011;63736;50.076;8.198;2023-02-23T13:24:05;1563.43;;;752.55;;
75156;SDS011;63736;50.076;8.198;2023-02-23T13:29:35;1559.80;;;758.45;;
75156;SDS011;63736;50.076;8.198;2023-02-23T13:32:04;1552.25;;;750.97;;
75156;SDS011;63736;50.076;8.198;2023-02-23T13:34:38;1550.57;;;752.27;;
75156;SDS011;63736;50.076;8.198;2023-02-23T13:37:07;1543.43;;;746.47;;
75156;SDS011;63736;50.076;8.198;2023-02-23T13:39:50;1547.10;;;745.35;;
75156;SDS011;63736;50.076;8.198;2023-02-23T13:53:04;1545.10;;;750.00;;
75156;SDS011;63736;50.076;8.198;2023-02-23T13:55:32;1532.20;;;744.75;;
75156;SDS011;63736;50.076;8.198;2023-02-23T13:58:05;1529.63;;;743.15;;
75156;SDS011;63736;50.076;8.198;2023-02-23T14:00:39;1547.57;;;750.50;;
75156;SDS011;63736;50.076;8.198;2023-02-23T14:03:06;1552.15;;;750.03;;
75156;SDS011;63736;50.076;8.198;2023-02-23T14:05:44;1548.65;;;753.03;;
75156;SDS011;63736;50.076;8.198;2023-02-23T14:08:56;1543.88;;;748.75;;
75156;SDS011;63736;50.076;8.198;2023-02-23T14:11:01;1533.93;;;745.92;;
75156;SDS011;63736;50.076;8.198;2023-02-23T14:13:56;1531.23;;;746.30;;
75156;SDS011;63736;50.076;8.198;2023-02-23T14:16:23;1528.72;;;746.40;;
75156;SDS011;63736;50.076;8.198;2023-02-23T14:18:52;1521.77;;;745.93;;
75156;SDS011;63736;50.076;8.198;2023-02-23T14:21:36;1503.85;;;740.33;;
75156;SDS011;63736;50.076;8.198;2023-02-23T14:24:18;1510.47;;;747.92;;
75156;SDS011;63736;50.076;8.198;2023-02-23T14:29:43;1508.85;;;748.92;;
75156;SDS011;63736;50.076;8.198;2023-02-23T14:32:29;1504.63;;;747.87;;
75156;SDS011;63736;50.076;8.198;2023-02-23T14:34:56;1513.75;;;749.92;;
75156;SDS011;63736;50.076;8.198;2023-02-23T14:40:28;1506.30;;;744.88;;
75156;SDS011;63736;50.076;8.198;2023-02-23T14:43:00;1509.85;;;745.30;;
75156;SDS011;63736;50.076;8.198;2023-02-23T14:45:28;1507.10;;;743.00;;
75156;SDS011;63736;50.076;8.198;2023-02-23T14:48:08;1507.70;;;740.22;;
75156;SDS011;63736;50.076;8.198;2023-02-23T14:50:36;1511.15;;;744.40;;
75156;SDS011;63736;50.076;8.198;2023-02-23T14:53:03;1506.38;;;738.50;;
75156;SDS011;63736;50.076;8.198;2023-02-23T14:55:34;1501.35;;;736.45;;
75156;SDS011;63736;50.076;8.198;2023-02-23T14:58:24;1504.17;;;738.27;;
75156;SDS011;63736;50.076;8.198;2023-02-23T15:00:52;1501.80;;;738.55;;
75156;SDS011;63736;50.076;8.198;2023-02-23T15:03:18;1499.07;;;737.70;;
75156;SDS011;63736;50.076;8.198;2023-02-23T15:05:45;1498.60;;;736.35;;
75156;SDS011;63736;50.076;8.198;2023-02-23T15:08:17;1502.03;;;738.07;;
75156;SDS011;63736;50.076;8.198;2023-02-23T15:10:48;1500.03;;;735.67;;
75156;SDS011;63736;50.076;8.198;2023-02-23T15:15:55;1497.20;;;736.28;;
75156;SDS011;63736;50.076;8.198;2023-02-23T15:21:48;1482.37;;;734.43;;
75156;SDS011;63736;50.076;8.198;2023-02-23T15:24:15;1492.50;;;738.75;;
75156;SDS011;63736;50.076;8.198;2023-02-23T15:26:41;1500.67;;;739.90;;
75156;SDS011;63736;50.076;8.198;2023-02-23T15:31:44;1485.70;;;726.10;;
75156;SDS011;63736;50.076;8.198;2023-02-23T15:34:16;1473.88;;;725.65;;
75156;SDS011;63736;50.076;8.198;2023-02-23T15:36:44;1488.53;;;729.15;;
75156;SDS011;63736;50.076;8.198;2023-02-23T15:39:13;1483.10;;;730.70;;
75156;SDS011;63736;50.076;8.198;2023-02-23T15:41:42;1484.80;;;728.07;;
75156;SDS011;63736;50.076;8.198;2023-02-23T15:44:14;1496.45;;;732.55;;
75156;SDS011;63736;50.076;8.198;2023-02-23T15:46:47;1490.88;;;727.28;;
75156;SDS011;63736;50.076;8.198;2023-02-23T15:49:16;1497.47;;;732.95;;
75156;SDS011;63736;50.076;8.198;2023-02-23T15:51:47;1489.40;;;726.65;;
75156;SDS011;63736;50.076;8.198;2023-02-23T15:54:17;1485.73;;;730.53;;
75156;SDS011;63736;50.076;8.198;2023-02-23T15:56:46;1481.05;;;726.00;;
75156;SDS011;63736;50.076;8.198;2023-02-23T15:59:15;1479.57;;;732.38;;
75156;SDS011;63736;50.076;8.198;2023-02-23T16:01:47;1483.47;;;732.22;;
75156;SDS011;63736;50.076;8.198;2023-02-23T16:04:17;1479.07;;;737.80;;
75156;SDS011;63736;50.076;8.198;2023-02-23T16:19:51;1480.25;;;749.10;;
75156;SDS011;63736;50.076;8.198;2023-02-23T16:22:23;1465.18;;;736.17;;
75156;SDS011;63736;50.076;8.198;2023-02-23T16:24:53;1491.13;;;775.13;;
75156;SDS011;63736;50.076;8.198;2023-02-23T16:27:23;1506.28;;;779.58;;
75156;SDS011;63736;50.076;8.198;2023-02-23T16:29:54;1500.15;;;784.88;;
75156;SDS011;63736;50.076;8.198;2023-02-23T16:32:43;1486.13;;;769.90;;
75156;SDS011;63736;50.076;8.198;2023-02-23T16:35:16;1477.65;;;767.80;;
75156;SDS011;63736;50.076;8.198;2023-02-23T16:37:49;1476.53;;;764.97;;
75156;SDS011;63736;50.076;8.198;2023-02-23T16:40:21;1477.32;;;762.67;;
75156;SDS011;63736;50.076;8.198;2023-02-23T16:42:46;1463.37;;;756.33;;
75156;SDS011;63736;50.076;8.198;2023-02-23T16:45:13;1463.95;;;754.50;;
75156;SDS011;63736;50.076;8.198;2023-02-23T16:47:42;1675.90;;;761.17;;
75156;SDS011;63736;50.076;8.198;2023-02-23T16:50:12;1536.40;;;755.53;;
75156;SDS011;63736;50.076;8.198;2023-02-23T16:52:41;1504.65;;;752.35;;
75156;SDS011;63736;50.076;8.198;2023-02-23T16:55:11;1486.10;;;748.67;;
75156;SDS011;63736;50.076;8.198;2023-02-23T16:57:39;1466.60;;;742.92;;
75156;SDS011;63736;50.076;8.198;2023-02-23T17:00:05;1450.05;;;734.08;;
75156;SDS011;63736;50.076;8.198;2023-02-23T17:02:39;1448.40;;;738.03;;
75156;SDS011;63736;50.076;8.198;2023-02-23T17:05:09;1453.32;;;735.53;;
75156;SDS011;63736;50.076;8.198;2023-02-23T17:07:37;1448.90;;;731.55;;
75156;SDS011;63736;50.076;8.198;2023-02-23T17:10:04;1446.53;;;727.83;;
75156;SDS011;63736;50.076;8.198;2023-02-23T17:12:30;1450.43;;;727.45;;
75156;SDS011;63736;50.076;8.198;2023-02-23T17:14:56;1451.30;;;735.90;;
75156;SDS011;63736;50.076;8.198;2023-02-23T17:17:22;1447.53;;;737.38;;